Time;durP1;ratioP1;P1;durP2;ratioP2;P2;SDS_P1;SDS_P2;PMS_P1;PMS_P2;Temp;Humidity;BMP_temperature;BMP_pressure;BME280_temperature;BME280_humidity;BME280_pressure;Samples;Min_cycle;Max_cycle;Signal;HPM_P1;HPM_P2
2022/09/21 00:01:16;;;;;;;;;5.25;3.50;;;;;13.64;59.71;102279.28;5075724;28;52090;-80
2022/09/21 00:03:42;;;;;;;;;5.00;4.25;;;;;13.64;59.88;102283.66;5076239;27;46056;-81
2022/09/21 00:06:11;;;;;;;;;3.75;3.75;;;;;13.64;59.61;102281.91;5058425;28;45440;-79
2022/09/21 00:08:37;;;;;;;;;5.50;4.00;;;;;13.64;59.68;102276.66;5076273;28;45191;-81
2022/09/21 00:11:04;;;;;;;;;3.75;3.00;;;;;13.63;60.09;102282.81;5076680;28;45250;-81
2022/09/21 00:13:31;;;;;;;;;3.00;3.00;;;;;13.63;59.74;102280.19;5076217;28;45475;-79
2022/09/21 00:15:56;;;;;;;;;4.00;4.00;;;;;13.62;59.79;102280.22;5076073;28;45363;-78
2022/09/21 00:18:22;;;;;;;;;6.00;3.50;;;;;13.61;60.47;102279.34;5075707;28;57762;-79
2022/09/21 00:20:48;;;;;;;;;6.75;3.00;;;;;13.60;60.03;102277.63;5076319;28;45492;-79
2022/09/21 00:23:13;;;;;;;;;2.75;2.75;;;;;13.57;59.92;102282.91;5075610;28;45480;-79
2022/09/21 00:25:39;;;;;;;;;7.50;3.00;;;;;13.53;59.79;102279.47;5075997;28;45359;-79
2022/09/21 00:28:04;;;;;;;;;2.00;2.00;;;;;13.51;59.88;102277.78;5076519;28;45596;-79
2022/09/21 00:30:30;;;;;;;;;4.00;4.00;;;;;13.47;59.94;102279.56;5075814;28;45308;-79
2022/09/21 00:32:55;;;;;;;;;4.75;3.00;;;;;13.44;59.88;102281.38;5081326;27;75527;-79
2022/09/21 00:35:20;;;;;;;;;4.00;2.00;;;;;13.41;59.83;102286.66;5075290;27;54725;-81
2022/09/21 00:37:46;;;;;;;;;8.25;8.00;;;;;13.36;60.00;102287.59;5074391;28;66746;-81
2022/09/21 00:40:11;;;;;;;;;10.00;8.00;;;;;13.34;60.98;102286.75;5073074;28;70268;-79
2022/09/21 00:42:37;;;;;;;;;13.25;8.75;;;;;13.31;60.73;102285.94;5075452;28;45576;-79
2022/09/21 00:45:03;;;;;;;;;12.00;7.50;;;;;13.33;61.13;102292.88;5075642;28;45334;-79
2022/09/21 00:47:35;;;;;;;;;10.00;7.50;;;;;13.35;61.02;102290.22;5057255;28;45482;-79
2022/09/21 00:50:05;;;;;;;;;10.75;8.75;;;;;13.33;60.86;102292.00;5056496;28;45336;-79
2022/09/21 00:52:33;;;;;;;;;15.50;12.50;;;;;13.34;61.34;102298.97;5075110;28;45526;-79
2022/09/21 00:55:05;;;;;;;;;13.75;13.00;;;;;13.31;61.74;102294.63;5075345;28;45336;-79
2022/09/21 00:57:31;;;;;;;;;13.75;10.25;;;;;13.31;61.38;102294.63;5057879;28;45464;-79
2022/09/21 01:00:00;;;;;;;;;14.50;13.25;;;;;13.30;61.16;102292.03;5074554;28;57836;-79
2022/09/21 01:02:27;;;;;;;;;14.50;13.00;;;;;13.27;61.45;102289.47;5075503;28;46294;-79
2022/09/21 01:04:53;;;;;;;;;13.75;12.50;;;;;13.25;61.92;102292.09;5075161;28;47334;-79
2022/09/21 01:07:25;;;;;;;;;20.00;13.00;;;;;13.23;62.20;102293.88;5074345;28;61099;-79
2022/09/21 01:09:53;;;;;;;;;15.00;13.75;;;;;13.17;62.07;102289.59;5057134;28;45341;-80
2022/09/21 01:12:34;;;;;;;;;15.00;13.75;;;;;13.19;62.31;102289.59;5057115;28;45555;-80
2022/09/21 01:15:19;;;;;;;;;16.25;12.00;;;;;13.17;62.69;102286.13;5072967;28;45956;-79
2022/09/21 01:18:03;;;;;;;;;15.25;12.50;;;;;13.14;62.47;102286.16;5074849;28;45320;-79
2022/09/21 01:20:49;;;;;;;;;17.50;13.00;;;;;13.12;62.49;102287.94;5075148;28;45452;-79
2022/09/21 01:23:40;;;;;;;;;14.50;13.50;;;;;13.09;62.52;102287.97;5075201;28;45499;-80
2022/09/21 01:26:20;;;;;;;;;19.00;14.25;;;;;13.10;62.08;102292.34;5075151;28;45447;-79
2022/09/21 01:29:08;;;;;;;;;16.75;13.00;;;;;13.08;62.31;102287.13;5074953;28;45204;-79
2022/09/21 01:31:39;;;;;;;;;12.50;9.25;;;;;13.04;62.13;102288.06;5062300;28;45884;-79
2022/09/21 01:34:15;;;;;;;;;16.25;12.50;;;;;13.00;62.58;102291.59;5057840;28;45590;-81
2022/09/21 01:36:41;;;;;;;;;11.50;11.50;;;;;12.99;62.24;102282.03;5057157;28;45846;-81
2022/09/21 01:39:10;;;;;;;;;15.00;13.00;;;;;12.97;62.30;102289.88;5056834;28;45242;-81
2022/09/21 01:41:37;;;;;;;;;12.50;12.25;;;;;12.96;62.61;102285.56;5056476;28;45384;-81
2022/09/21 01:44:12;;;;;;;;;14.75;11.75;;;;;12.93;62.40;102292.56;5055323;28;46387;-81
2022/09/21 01:46:38;;;;;;;;;14.50;12.50;;;;;12.92;62.98;102285.59;5074843;28;45418;-81
2022/09/21 01:49:36;;;;;;;;;17.00;13.25;;;;;12.88;63.23;102297.00;5074359;28;45464;-81
2022/09/21 01:52:13;;;;;;;;;14.25;12.25;;;;;12.85;62.82;102290.06;5051247;28;45524;-81
2022/09/21 01:54:50;;;;;;;;;14.50;12.00;;;;;12.83;63.06;102297.03;5060157;28;45578;-81
2022/09/21 01:57:28;;;;;;;;;12.75;11.00;;;;;12.83;63.42;102291.81;5078118;28;45420;-79
2022/09/21 01:59:56;;;;;;;;;23.25;12.75;;;;;12.81;62.98;102292.72;5059416;28;45484;-79
2022/09/21 02:02:47;;;;;;;;;17.50;10.75;;;;;12.81;63.09;102292.72;5060235;28;45325;-79
2022/09/21 02:05:15;;;;;;;;;12.25;12.25;;;;;12.84;63.06;102290.94;5059526;28;46342;-79
2022/09/21 02:07:41;;;;;;;;;18.75;12.00;;;;;12.87;63.28;102297.88;5060268;28;45783;-78
2022/09/21 02:10:12;;;;;;;;;14.75;10.50;;;;;12.85;62.85;102287.47;5058805;28;69072;-79
2022/09/21 02:12:38;;;;;;;;;14.00;9.25;;;;;12.86;63.03;102290.94;5060014;28;45487;-79
2022/09/21 02:15:04;;;;;;;;;14.00;12.00;;;;;12.87;62.41;102296.13;5077333;28;46388;-79
2022/09/21 02:17:30;;;;;;;;;9.50;9.50;;;;;12.89;62.51;102288.25;5058807;28;45399;-79
2022/09/21 02:20:06;;;;;;;;;10.75;10.25;;;;;12.87;62.50;102293.53;5078000;28;45345;-79
2022/09/21 02:22:38;;;;;;;;;13.25;11.50;;;;;12.82;62.40;102292.72;5060095;28;45474;-79
2022/09/21 02:25:10;;;;;;;;;10.75;8.50;;;;;12.77;62.30;102290.16;5059374;28;46326;-78
2022/09/21 02:27:54;;;;;;;;;14.00;9.75;;;;;12.75;62.88;102286.69;5059532;28;45816;-79
2022/09/21 02:30:21;;;;;;;;;12.50;9.00;;;;;12.70;62.59;102287.66;5077783;28;45415;-79
2022/09/21 02:33:05;;;;;;;;;13.75;9.25;;;;;12.63;62.83;102281.66;5064713;27;45404;-79
2022/09/21 02:35:42;;;;;;;;;15.75;11.75;;;;;12.59;62.76;102288.66;5057707;28;45386;-78
2022/09/21 02:38:14;;;;;;;;;13.25;12.00;;;;;12.56;62.83;102286.06;5057811;28;45457;-78
2022/09/21 02:40:59;;;;;;;;;14.75;9.00;;;;;12.54;62.79;102279.16;5060226;28;45366;-78
2022/09/21 02:44:04;;;;;;;;;14.25;10.25;;;;;12.48;62.79;102280.09;5039671;28;45312;-78
2022/09/21 02:46:45;;;;;;;;;11.25;8.75;;;;;12.45;62.83;102285.34;5044793;28;46267;-78
2022/09/21 02:49:15;;;;;;;;;7.75;7.50;;;;;12.44;62.98;102280.13;5077252;28;45757;-79
2022/09/21 02:51:46;;;;;;;;;10.00;9.00;;;;;12.41;63.06;102278.44;5046770;28;45317;-79
2022/09/21 02:54:13;;;;;;;;;13.50;8.50;;;;;12.37;62.73;102282.84;5077742;28;45229;-79
2022/09/21 02:56:40;;;;;;;;;13.50;8.75;;;;;12.36;62.87;102283.69;5059208;28;46292;-78
2022/09/21 02:59:07;;;;;;;;;13.00;9.00;;;;;12.34;63.25;102277.63;5059085;28;45712;-79
2022/09/21 03:01:33;;;;;;;;;11.00;10.00;;;;;12.32;63.11;102279.41;5076602;28;45498;-79
2022/09/21 03:03:58;;;;;;;;;9.00;9.00;;;;;12.29;63.28;102275.97;5058349;28;45454;-79
2022/09/21 03:06:23;;;;;;;;;12.50;10.00;;;;;12.28;63.50;102277.72;5076962;28;46274;-79
2022/09/21 03:08:49;;;;;;;;;12.50;9.00;;;;;12.25;63.09;102271.66;5076492;28;51080;-79
2022/09/21 03:11:18;;;;;;;;;17.50;11.50;;;;;12.20;63.75;102276.91;5077053;28;56268;-79
2022/09/21 03:13:44;;;;;;;;;8.75;7.75;;;;;12.16;63.57;102281.31;5076909;28;45402;-79
2022/09/21 03:16:10;;;;;;;;;11.00;8.75;;;;;12.13;63.94;102272.69;5075679;28;45796;-78
2022/09/21 03:18:35;;;;;;;;;12.50;10.00;;;;;12.12;63.49;102282.22;5076922;28;45384;-79
2022/09/21 03:21:02;;;;;;;;;12.00;10.75;;;;;12.13;64.06;102277.91;5076004;28;66679;-79
2022/09/21 03:23:27;;;;;;;;;12.75;11.75;;;;;12.08;63.88;102275.31;5077391;28;45485;-79
2022/09/21 03:25:53;;;;;;;;;7.00;7.00;;;;;12.05;63.90;102283.16;5077016;28;45495;-79
2022/09/21 03:28:19;;;;;;;;;10.75;8.00;;;;;12.05;63.99;102279.72;5077103;28;45293;-79
2022/09/21 03:30:45;;;;;;;;;13.50;8.00;;;;;12.02;63.59;102278.00;5076891;28;45266;-79
2022/09/21 03:33:11;;;;;;;;;11.25;11.25;;;;;11.99;64.07;102272.81;5067744;27;45331;-79
2022/09/21 03:35:38;;;;;;;;;10.75;8.75;;;;;11.96;64.57;102276.31;5061263;28;47017;-79
2022/09/21 03:38:04;;;;;;;;;14.00;10.75;;;;;11.93;64.33;102276.34;5076883;28;45353;-79
2022/09/21 03:40:30;;;;;;;;;11.75;9.25;;;;;11.91;64.09;102282.47;5076817;28;45333;-79
2022/09/21 03:42:55;;;;;;;;;10.00;8.75;;;;;11.90;64.65;102285.94;5077057;28;45509;-79
2022/09/21 03:45:21;;;;;;;;;7.25;5.75;;;;;11.90;64.45;102281.56;5076615;28;45721;-80
2022/09/21 03:47:47;;;;;;;;;8.50;8.50;;;;;11.91;64.08;102285.94;5077002;28;45477;-80
2022/09/21 03:50:13;;;;;;;;;11.00;7.75;;;;;11.89;64.00;102278.97;5056431;28;52225;-80
2022/09/21 03:52:39;;;;;;;;;13.00;11.00;;;;;11.87;64.46;102278.09;5056520;28;45511;-80
2022/09/21 03:55:06;;;;;;;;;11.00;8.25;;;;;11.84;64.53;102275.53;5064184;28;45362;-80
2022/09/21 03:57:33;;;;;;;;;14.00;10.50;;;;;11.81;64.39;102281.63;5076547;28;45507;-80
2022/09/21 03:59:58;;;;;;;;;14.00;9.50;;;;;11.77;64.24;102275.59;5076085;28;45291;-80
2022/09/21 04:02:24;;;;;;;;;12.00;11.00;;;;;11.74;64.19;102274.78;5076521;28;45300;-80
2022/09/21 04:04:49;;;;;;;;;10.75;9.50;;;;;11.72;64.15;102273.88;5075926;28;60349;-80
2022/09/21 04:07:15;;;;;;;;;14.00;11.00;;;;;11.69;64.42;102268.72;5076620;28;45315;-80
2022/09/21 04:09:40;;;;;;;;;13.25;11.00;;;;;11.67;64.18;102276.56;5076209;28;45403;-79
2022/09/21 04:12:06;;;;;;;;;11.75;10.00;;;;;11.65;64.46;102267.03;5075449;28;45524;-80
2022/09/21 04:14:32;;;;;;;;;10.75;10.75;;;;;11.62;64.12;102270.50;5057123;28;45431;-80
2022/09/21 04:16:57;;;;;;;;;14.50;10.00;;;;;11.61;64.89;102271.41;5058354;28;45762;-81
2022/09/21 04:19:23;;;;;;;;;11.50;11.00;;;;;11.59;64.79;102267.94;5076277;28;45395;-80
2022/09/21 04:21:50;;;;;;;;;11.50;9.25;;;;;11.57;64.46;102269.69;5075855;28;49526;-81
2022/09/21 04:24:18;;;;;;;;;13.50;10.00;;;;;11.54;64.53;102269.72;5075636;28;45527;-80
2022/09/21 04:26:45;;;;;;;;;15.75;14.00;;;;;11.51;64.98;102268.00;5076138;28;45302;-79
2022/09/21 04:29:11;;;;;;;;;14.75;11.75;;;;;11.48;64.73;102272.38;5057658;28;45760;-80
2022/09/21 04:31:37;;;;;;;;;14.00;11.25;;;;;11.48;64.88;102269.75;5058176;28;45606;-80
2022/09/21 04:34:02;;;;;;;;;15.00;11.50;;;;;11.47;65.08;102274.13;5059013;28;50913;-79
2022/09/21 04:36:28;;;;;;;;;12.00;10.00;;;;;11.50;65.03;102273.25;5075208;28;70411;-80
2022/09/21 04:38:54;;;;;;;;;13.75;8.75;;;;;11.50;64.73;102266.28;5075523;28;45435;-80
2022/09/21 04:41:19;;;;;;;;;11.50;10.00;;;;;11.49;64.62;102269.75;5076159;28;45474;-80
2022/09/21 04:43:46;;;;;;;;;13.50;11.00;;;;;11.47;64.50;102278.47;5073989;28;47052;-80
2022/09/21 04:46:14;;;;;;;;;9.75;9.25;;;;;11.45;64.95;102280.22;5057870;28;45447;-80
2022/09/21 04:48:40;;;;;;;;;14.50;10.75;;;;;11.43;64.49;102280.25;5076306;28;45283;-80
2022/09/21 04:51:09;;;;;;;;;14.25;11.25;;;;;11.41;64.99;102275.03;5076056;28;45321;-80
2022/09/21 04:53:36;;;;;;;;;13.25;11.00;;;;;11.40;64.96;102280.25;5075414;28;46474;-80
2022/09/21 04:56:02;;;;;;;;;7.00;5.25;;;;;11.37;65.12;102277.69;5057635;28;45234;-80
2022/09/21 04:58:28;;;;;;;;;13.75;10.25;;;;;11.33;65.21;102282.06;5057372;28;45352;-80
2022/09/21 05:00:54;;;;;;;;;12.25;8.00;;;;;11.29;65.12;102282.97;5075800;28;45901;-80
2022/09/21 05:03:20;;;;;;;;;15.00;11.00;;;;;11.27;65.26;102279.47;5075525;28;46374;-79
2022/09/21 05:05:47;;;;;;;;;11.50;10.00;;;;;11.26;65.01;102282.97;5057146;28;45375;-80
2022/09/21 05:08:12;;;;;;;;;15.00;12.00;;;;;11.24;65.55;102279.50;5075374;28;45450;-80
2022/09/21 05:10:38;;;;;;;;;11.50;10.75;;;;;11.22;65.64;102282.13;5074885;28;70566;-80
2022/09/21 05:13:03;;;;;;;;;9.00;8.50;;;;;11.21;65.42;102283.00;5073655;28;73209;-80
2022/09/21 05:15:28;;;;;;;;;15.50;11.25;;;;;11.20;65.32;102278.66;5075056;28;45472;-80
2022/09/21 05:17:54;;;;;;;;;11.50;11.00;;;;;11.22;65.16;102282.13;5074770;28;66107;-80
2022/09/21 05:20:19;;;;;;;;;6.50;6.50;;;;;11.22;65.57;102291.69;5075287;28;45538;-80
2022/09/21 05:22:44;;;;;;;;;11.25;11.25;;;;;11.20;65.57;102288.25;5075161;28;46076;-80
2022/09/21 05:25:10;;;;;;;;;14.25;10.75;;;;;11.21;64.84;102282.13;5074765;28;67077;-80
2022/09/21 05:27:35;;;;;;;;;19.75;12.50;;;;;11.23;65.05;102282.97;5076695;28;45432;-80
2022/09/21 05:30:01;;;;;;;;;9.75;8.50;;;;;11.22;64.86;102278.66;5079272;28;45438;-80
2022/09/21 05:32:46;;;;;;;;;10.00;8.00;;;;;11.20;65.14;102283.88;5075799;28;45576;-80
2022/09/21 05:35:42;;;;;;;;;11.50;9.50;;;;;11.17;64.98;102281.28;5076907;28;45779;-80
2022/09/21 05:38:15;;;;;;;;;11.00;10.25;;;;;11.15;65.17;102283.03;5078648;28;45455;-80
2022/09/21 05:40:40;;;;;;;;;7.00;7.00;;;;;11.15;65.17;102288.25;5078293;28;45481;-79
2022/09/21 05:43:07;;;;;;;;;11.00;10.00;;;;;11.15;65.52;102283.03;5078907;28;46046;-80
2022/09/21 05:45:33;;;;;;;;;9.00;8.50;;;;;11.16;65.33;102278.69;5078673;28;45459;-80
2022/09/21 05:48:18;;;;;;;;;15.00;8.50;;;;;11.17;65.06;102275.22;5077388;28;45379;-80
2022/09/21 05:51:00;;;;;;;;;17.50;8.50;;;;;11.16;65.37;102279.56;5060330;28;45350;-80
2022/09/21 05:53:46;;;;;;;;;11.25;7.00;;;;;11.16;65.31;102271.75;5059361;28;45480;-80
2022/09/21 05:56:30;;;;;;;;;8.00;8.00;;;;;11.19;65.07;102276.06;5059090;28;45500;-80
2022/09/21 05:59:03;;;;;;;;;11.00;11.00;;;;;11.21;65.35;102280.38;5059654;28;45530;-80
2022/09/21 06:01:34;;;;;;;;;11.25;11.00;;;;;11.24;65.40;102272.56;5077427;28;45297;-80
2022/09/21 06:04:01;;;;;;;;;8.75;8.75;;;;;11.24;65.45;102272.56;5077868;28;45395;-80
2022/09/21 06:06:26;;;;;;;;;9.50;7.50;;;;;11.28;65.05;102275.16;5078335;28;45467;-80
2022/09/21 06:08:51;;;;;;;;;13.25;9.00;;;;;11.30;65.08;102276.00;5077112;28;64546;-80
2022/09/21 06:11:17;;;;;;;;;14.25;8.50;;;;;11.28;65.09;102278.63;5076374;28;67860;-80
2022/09/21 06:13:42;;;;;;;;;11.50;9.00;;;;;11.28;65.53;102288.19;5077704;28;45579;-80
2022/09/21 06:16:08;;;;;;;;;10.75;8.00;;;;;11.29;65.32;102276.84;5078023;28;45366;-80
2022/09/21 06:18:41;;;;;;;;;12.75;8.25;;;;;11.30;65.31;102289.88;5076682;28;48730;-80
2022/09/21 06:21:07;;;;;;;;;11.00;8.00;;;;;11.33;65.17;102287.28;5077833;28;45376;-80
2022/09/21 06:23:32;;;;;;;;;17.25;11.00;;;;;11.33;65.70;102286.38;5078110;28;46345;-80
2022/09/21 06:25:57;;;;;;;;;11.00;8.75;;;;;11.33;65.18;102292.47;5077762;28;45336;-80
2022/09/21 06:28:23;;;;;;;;;19.25;10.00;;;;;11.35;65.71;102295.09;5078307;28;45335;-80
2022/09/21 06:30:52;;;;;;;;;12.00;10.75;;;;;11.37;66.01;102288.97;5077046;28;69467;-80
2022/09/21 06:33:22;;;;;;;;;11.50;10.00;;;;;11.39;65.76;102295.03;5077977;27;45504;-80
2022/09/21 06:35:55;;;;;;;;;18.00;10.00;;;;;11.43;66.25;102291.53;5077299;28;45396;-79
2022/09/21 06:38:22;;;;;;;;;13.50;11.25;;;;;11.47;66.43;102292.38;5077445;28;45340;-79
2022/09/21 06:40:48;;;;;;;;;10.25;7.50;;;;;11.51;66.05;102291.47;5076681;28;45559;-80
2022/09/21 06:43:13;;;;;;;;;13.00;11.50;;;;;11.58;66.34;102302.72;5077414;28;46311;-80
2022/09/21 06:45:38;;;;;;;;;16.50;14.00;;;;;11.59;66.21;102294.88;5077723;28;45388;-79
2022/09/21 06:48:04;;;;;;;;;15.25;11.50;;;;;11.62;66.47;102297.44;5077263;28;45335;-80
2022/09/21 06:50:29;;;;;;;;;16.50;13.00;;;;;11.66;67.14;102297.44;5077058;28;60971;-80
2022/09/21 06:52:54;;;;;;;;;15.75;12.00;;;;;11.69;66.76;102292.19;5058173;28;69452;-80
2022/09/21 06:55:20;;;;;;;;;15.00;12.00;;;;;11.75;66.42;102294.75;5077501;28;45285;-79
2022/09/21 06:57:45;;;;;;;;;11.00;11.00;;;;;11.85;65.92;102293.81;5077816;28;45388;-80
2022/09/21 07:00:11;;;;;;;;;16.00;12.50;;;;;11.90;66.16;102297.25;5077617;28;45424;-80
2022/09/21 07:02:37;;;;;;;;;13.00;12.75;;;;;11.94;66.11;102303.28;5075363;28;46711;-80
2022/09/21 07:05:03;;;;;;;;;15.50;11.25;;;;;11.97;66.89;102298.06;5075535;28;69805;-80
2022/09/21 07:07:29;;;;;;;;;14.00;10.75;;;;;11.99;66.09;102301.50;5076912;28;45403;-80
2022/09/21 07:09:55;;;;;;;;;14.00;8.00;;;;;12.04;66.23;102304.09;5076339;28;45406;-80
2022/09/21 07:12:20;;;;;;;;;8.75;8.75;;;;;12.11;66.22;102305.72;5076429;28;45452;-80
2022/09/21 07:14:46;;;;;;;;;13.50;13.25;;;;;12.16;65.68;102296.13;5076075;28;45703;-80
2022/09/21 07:17:13;;;;;;;;;12.50;10.00;;;;;12.20;66.36;102298.69;5075978;28;45578;-78
2022/09/21 07:19:39;;;;;;;;;16.25;12.00;;;;;12.25;66.22;102303.00;5075979;28;45433;-79
2022/09/21 07:22:04;;;;;;;;;9.75;7.00;;;;;12.26;65.73;102287.31;5075339;28;45590;-80
2022/09/21 07:24:29;;;;;;;;;13.75;11.25;;;;;12.29;66.17;102295.09;5075301;28;69756;-80
2022/09/21 07:26:55;;;;;;;;;17.00;13.00;;;;;12.36;65.43;102285.47;5076019;28;69281;-79
2022/09/21 07:29:20;;;;;;;;;12.75;10.75;;;;;12.43;65.96;102294.09;5076919;28;46506;-80
2022/09/21 07:31:47;;;;;;;;;18.75;12.75;;;;;12.49;65.56;102289.66;5076949;28;45467;-80
2022/09/21 07:34:12;;;;;;;;;10.50;9.25;;;;;12.54;65.58;102292.22;5094187;27;45862;-80
2022/09/21 07:36:38;;;;;;;;;20.00;11.00;;;;;12.55;65.88;102284.34;5097120;27;45373;-79
2022/09/21 07:39:03;;;;;;;;;15.50;11.00;;;;;12.57;65.49;102287.81;5097234;27;47043;-79
2022/09/21 07:41:29;;;;;;;;;13.25;11.00;;;;;12.60;66.28;102289.53;5097124;27;46259;-82
2022/09/21 07:43:54;;;;;;;;;12.50;10.50;;;;;12.62;65.54;102281.66;5083668;27;55905;-81
2022/09/21 07:46:19;;;;;;;;;11.75;9.75;;;;;12.65;66.03;102279.88;5076716;28;45887;-81
2022/09/21 07:48:45;;;;;;;;;10.25;8.00;;;;;12.70;65.52;102282.41;5064210;28;45318;-81
2022/09/21 07:51:12;;;;;;;;;8.75;6.00;;;;;12.74;65.85;102284.09;5057331;28;47541;-83
2022/09/21 07:53:41;;;;;;;;;20.00;12.00;;;;;12.81;65.19;102282.28;5041246;27;45753;-81
2022/09/21 07:56:08;;;;;;;;;13.25;8.75;;;;;12.87;65.20;102275.22;5076580;28;45210;-82
2022/09/21 08:01:19;;;;;;;;;18.25;12.00;;;;;13.00;64.78;102270.69;5056353;28;45815;-81
2022/09/21 08:03:48;;;;;;;;;17.25;9.00;;;;;13.07;64.74;102272.31;5056163;28;45400;-81
2022/09/21 08:06:13;;;;;;;;;13.50;10.00;;;;;13.16;65.00;102268.69;5037957;28;45484;-81
2022/09/21 08:08:40;;;;;;;;;13.25;9.50;;;;;13.23;64.09;102269.47;5055297;28;68001;-81
2022/09/21 08:11:06;;;;;;;;;9.25;7.00;;;;;13.29;64.43;102278.06;5056050;28;46157;-81
2022/09/21 08:13:31;;;;;;;;;15.50;10.00;;;;;13.36;64.16;102279.75;5054687;28;45297;-81
2022/09/21 08:16:00;;;;;;;;;13.25;10.75;;;;;13.43;63.78;102272.69;5055942;28;45340;-81
2022/09/21 08:18:26;;;;;;;;;12.50;11.00;;;;;13.50;63.70;102276.03;5056411;28;45426;-82
2022/09/21 08:20:58;;;;;;;;;14.25;7.25;;;;;13.58;63.86;102279.41;5055529;28;45579;-81
2022/09/21 08:23:25;;;;;;;;;14.00;11.75;;;;;13.66;63.72;102284.50;5055938;28;45996;-81
2022/09/21 08:25:51;;;;;;;;;12.25;9.00;;;;;13.74;63.77;102278.25;5056148;28;45337;-81
2022/09/21 08:28:17;;;;;;;;;12.00;9.00;;;;;13.85;63.23;102282.41;5064535;28;45507;-81
2022/09/21 08:30:42;;;;;;;;;14.00;10.00;;;;;13.92;62.77;102281.41;5071207;28;45420;-81
2022/09/21 08:33:08;;;;;;;;;16.75;9.50;;;;;14.00;62.43;102283.91;5081909;27;45382;-80
2022/09/21 08:35:35;;;;;;;;;19.00;13.50;;;;;14.06;62.92;102284.66;5076361;27;45339;-82
2022/09/21 08:38:00;;;;;;;;;12.50;12.25;;;;;14.12;62.32;102283.69;5058047;28;45444;-82
2022/09/21 08:40:26;;;;;;;;;13.00;9.75;;;;;14.17;61.72;102280.94;5075215;28;62725;-82
2022/09/21 08:42:59;;;;;;;;;13.50;11.25;;;;;14.23;62.15;102278.25;5075340;28;62330;-82
2022/09/21 08:45:32;;;;;;;;;14.00;9.75;;;;;14.29;62.22;102278.09;5057942;28;45369;-82
2022/09/21 08:47:59;;;;;;;;;17.00;11.25;;;;;14.37;61.37;102272.72;5057680;28;45594;-82
2022/09/21 08:50:38;;;;;;;;;16.00;13.00;;;;;14.46;61.72;102272.53;5075348;28;46197;-82
2022/09/21 08:53:11;;;;;;;;;11.25;10.00;;;;;14.53;61.28;102267.13;5057782;28;45447;-82
2022/09/21 08:55:36;;;;;;;;;10.50;10.25;;;;;14.62;60.98;102271.34;5057736;28;45337;-82
2022/09/21 08:58:02;;;;;;;;;13.75;10.75;;;;;14.70;60.64;102279.88;5075968;28;45344;-82
2022/09/21 09:00:33;;;;;;;;;11.00;9.00;;;;;14.78;60.85;102279.72;5057521;28;46537;-82
2022/09/21 09:03:24;;;;;;;;;13.75;8.50;;;;;14.88;60.08;102277.78;5060010;28;45342;-82
2022/09/21 09:05:59;;;;;;;;;12.50;8.75;;;;;14.95;60.44;102282.00;5079509;28;45428;-82
2022/09/21 09:08:44;;;;;;;;;9.25;8.75;;;;;15.03;59.90;102287.91;5061254;28;45401;-82
2022/09/21 09:11:15;;;;;;;;;8.75;8.75;;;;;15.12;59.86;102284.22;5061125;28;45519;-82
2022/09/21 09:13:58;;;;;;;;;8.50;8.25;;;;;15.18;59.66;102285.84;5079207;28;45319;-82
2022/09/21 09:16:56;;;;;;;;;10.50;9.00;;;;;15.25;59.02;102282.16;5079193;28;45344;-83
2022/09/21 09:19:47;;;;;;;;;12.00;9.50;;;;;15.31;59.18;102276.75;5078956;28;45371;-82
2022/09/21 09:22:17;;;;;;;;;10.00;8.25;;;;;15.41;58.50;102290.50;5078304;27;46526;-82
2022/09/21 09:24:42;;;;;;;;;9.00;8.50;;;;;15.47;58.58;102278.13;5061055;28;45203;-82
2022/09/21 09:27:14;;;;;;;;;9.00;9.00;;;;;15.54;58.67;102267.47;5044042;28;45373;-82
2022/09/21 09:29:58;;;;;;;;;7.25;6.00;;;;;15.61;58.14;102266.41;5061263;28;45437;-83
2022/09/21 09:32:30;;;;;;;;;9.00;8.00;;;;;15.68;57.52;102267.97;5078372;28;45550;-82
2022/09/21 09:35:21;;;;;;;;;8.75;4.50;;;;;15.76;57.53;102270.44;5077776;28;45439;-81
2022/09/21 09:37:47;;;;;;;;;7.25;6.00;;;;;15.83;57.08;102264.13;5078005;28;45410;-82
2022/09/21 09:40:13;;;;;;;;;10.50;5.75;;;;;15.91;56.64;102269.16;5077773;28;45305;-81
2022/09/21 09:42:55;;;;;;;;;8.00;6.00;;;;;15.97;56.26;102272.50;5078711;27;46383;-81
2022/09/21 09:45:36;;;;;;;;;10.00;7.75;;;;;16.04;56.43;102271.41;5077426;28;45710;-82
2022/09/21 09:48:13;;;;;;;;;9.00;6.00;;;;;16.09;55.51;102271.28;5078434;27;45364;-82
2022/09/21 09:50:39;;;;;;;;;8.00;5.75;;;;;16.15;55.49;102265.84;5078825;28;45417;-82
2022/09/21 09:53:12;;;;;;;;;8.00;5.75;;;;;16.22;55.83;102270.03;5078344;28;46391;-83
2022/09/21 09:55:56;;;;;;;;;6.00;5.25;;;;;16.28;55.17;102271.63;5065117;28;45327;-83
2022/09/21 09:58:49;;;;;;;;;4.50;4.50;;;;;16.33;55.46;102275.00;5060622;28;45381;-82
2022/09/21 10:01:40;;;;;;;;;5.00;5.00;;;;;16.41;55.04;102275.63;5039052;28;45637;-82
2022/09/21 10:04:08;;;;;;;;;10.00;6.00;;;;;16.49;54.57;102278.00;5057197;28;45542;-82
2022/09/21 10:06:33;;;;;;;;;5.50;5.50;;;;;16.53;54.41;102263.91;5065770;28;45345;-81
2022/09/21 10:08:59;;;;;;;;;11.50;7.75;;;;;16.60;54.07;102262.81;5070173;28;45592;-82
2022/09/21 10:11:33;;;;;;;;;10.75;5.25;;;;;16.66;54.09;102264.41;5060057;28;45420;-82
2022/09/21 10:14:07;;;;;;;;;9.75;6.50;;;;;16.72;53.81;102258.94;5059096;28;46455;-81
2022/09/21 10:16:39;;;;;;;;;6.00;6.00;;;;;16.80;53.32;102254.31;5059368;28;45643;-81
2022/09/21 10:19:04;;;;;;;;;8.50;5.25;;;;;16.90;53.01;102251.41;5059276;28;45417;-81
2022/09/21 10:21:39;;;;;;;;;7.75;4.75;;;;;16.99;52.93;102249.38;5056808;28;55225;-81
2022/09/21 10:24:06;;;;;;;;;7.75;5.00;;;;;17.10;52.32;102256.91;5059684;28;47534;-81
2022/09/21 10:26:41;;;;;;;;;5.00;4.00;;;;;17.22;51.79;102255.66;5060026;28;45700;-81
2022/09/21 10:29:17;;;;;;;;;8.00;7.00;;;;;17.35;51.76;102243.81;5059014;28;45733;-80
2022/09/21 10:32:06;;;;;;;;;5.00;5.00;;;;;17.52;51.58;102245.88;5076120;28;45525;-80
2022/09/21 10:34:34;;;;;;;;;10.25;5.00;;;;;17.67;51.08;102249.75;5077589;28;45380;-80
2022/09/21 10:37:01;;;;;;;;;7.75;4.00;;;;;17.90;50.66;102253.38;5077758;27;45376;-80
2022/09/21 10:39:33;;;;;;;;;7.50;5.00;;;;;18.14;49.84;102244.56;5052088;28;45530;-82
2022/09/21 10:42:06;;;;;;;;;6.75;5.50;;;;;18.34;48.95;102243.00;5077221;28;45379;-82
2022/09/21 10:44:49;;;;;;;;;5.75;4.00;;;;;18.53;49.01;102244.00;5038559;28;48361;-82
2022/09/21 10:47:21;;;;;;;;;8.00;4.75;;;;;18.70;48.33;102240.72;5057171;28;45724;-83
2022/09/21 10:49:49;;;;;;;;;4.00;3.00;;;;;18.84;48.76;102236.72;5059530;28;45333;-81
2022/09/21 10:52:18;;;;;;;;;3.00;3.00;;;;;18.90;47.74;102234.66;5076113;28;45630;-84
2022/09/21 10:54:44;;;;;;;;;5.25;4.00;;;;;18.94;47.49;102238.03;5059667;28;46318;-88
2022/09/21 10:57:16;;;;;;;;;4.25;4.25;;;;;19.01;47.17;102244.78;5059455;28;45515;-82
2022/09/21 10:59:41;;;;;;;;;5.25;3.75;;;;;19.14;46.63;102243.38;5057830;28;45397;-82
2022/09/21 11:02:30;;;;;;;;;4.00;3.00;;;;;19.28;46.54;102234.91;5058350;28;45345;-83
2022/09/21 11:05:18;;;;;;;;;4.50;3.50;;;;;19.33;45.02;102232.94;5073232;28;46557;-84
2022/09/21 11:08:11;;;;;;;;;3.50;2.75;;;;;19.43;45.37;102233.38;5057060;28;45420;-83
2022/09/21 11:11:01;;;;;;;;;6.00;3.00;;;;;19.51;45.36;102230.41;5060928;28;45521;-83
2022/09/21 11:13:55;;;;;;;;;3.25;3.25;;;;;19.59;44.75;102225.66;5049100;28;46635;-84
2022/09/21 11:16:24;;;;;;;;;4.00;3.00;;;;;19.60;44.58;102222.09;5077026;28;45765;-81
2022/09/21 11:19:04;;;;;;;;;4.00;3.00;;;;;19.69;44.21;102220.84;5074996;28;45765;-82
2022/09/21 11:21:48;;;;;;;;;3.00;3.00;;;;;19.86;44.65;102220.97;5076769;28;45306;-81
2022/09/21 11:24:37;;;;;;;;;4.00;3.00;;;;;21.36;45.07;102221.84;5076490;28;45348;-84
2022/09/21 11:27:10;;;;;;;;;4.75;3.50;;;;;24.03;41.52;102218.38;5058835;28;45590;-83
2022/09/21 11:29:54;;;;;;;;;6.50;3.25;;;;;27.02;39.41;102213.00;5058822;28;45460;-82
2022/09/21 11:32:56;;;;;;;;;4.25;3.00;;;;;30.33;33.64;102209.06;5065418;27;45733;-83
2022/09/21 11:35:32;;;;;;;;;4.75;2.25;;;;;32.69;30.67;102211.81;5060560;28;45474;-83